sensor_id;sensor_type;location;lat;lon;timestamp;P1;durP1;ratioP1;P2;durP2;ratioP2
79460;SDS011;68929;42.666;23.324;2023-07-22T00:02:14;12.13;;;6.43;;
79460;SDS011;68929;42.666;23.324;2023-07-22T00:04:40;14.65;;;6.68;;
79460;SDS011;68929;42.666;23.324;2023-07-22T00:07:05;11.63;;;6.70;;
79460;SDS011;68929;42.666;23.324;2023-07-22T00:09:32;12.85;;;6.97;;
79460;SDS011;68929;42.666;23.324;2023-07-22T00:11:58;15.80;;;7.47;;
79460;SDS011;68929;42.666;23.324;2023-07-22T00:14:24;15.75;;;7.68;;
79460;SDS011;68929;42.666;23.324;2023-07-22T00:16:49;14.65;;;8.27;;
79460;SDS011;68929;42.666;23.324;2023-07-22T00:19:15;15.52;;;8.00;;
79460;SDS011;68929;42.666;23.324;2023-07-22T00:21:40;12.88;;;6.72;;
79460;SDS011;68929;42.666;23.324;2023-07-22T00:24:05;15.95;;;7.43;;
79460;SDS011;68929;42.666;23.324;2023-07-22T00:26:31;14.63;;;8.23;;
79460;SDS011;68929;42.666;23.324;2023-07-22T00:28:56;20.60;;;9.50;;
79460;SDS011;68929;42.666;23.324;2023-07-22T00:31:22;18.85;;;11.57;;
79460;SDS011;68929;42.666;23.324;2023-07-22T00:33:47;11.45;;;8.10;;
79460;SDS011;68929;42.666;23.324;2023-07-22T00:36:12;13.75;;;7.63;;
79460;SDS011;68929;42.666;23.324;2023-07-22T00:38:37;18.98;;;7.50;;
79460;SDS011;68929;42.666;23.324;2023-07-22T00:41:04;15.00;;;7.85;;
79460;SDS011;68929;42.666;23.324;2023-07-22T00:43:30;14.02;;;7.65;;
79460;SDS011;68929;42.666;23.324;2023-07-22T00:45:56;15.77;;;7.93;;
79460;SDS011;68929;42.666;23.324;2023-07-22T00:48:22;11.57;;;7.18;;
79460;SDS011;68929;42.666;23.324;2023-07-22T00:50:48;16.15;;;8.52;;
79460;SDS011;68929;42.666;23.324;2023-07-22T00:53:13;22.00;;;7.38;;
79460;SDS011;68929;42.666;23.324;2023-07-22T00:55:39;18.67;;;7.80;;
79460;SDS011;68929;42.666;23.324;2023-07-22T00:58:08;17.70;;;8.65;;
79460;SDS011;68929;42.666;23.324;2023-07-22T01:00:33;13.32;;;7.63;;
79460;SDS011;68929;42.666;23.324;2023-07-22T01:02:58;12.90;;;6.82;;
79460;SDS011;68929;42.666;23.324;2023-07-22T01:05:25;17.05;;;8.25;;
79460;SDS011;68929;42.666;23.324;2023-07-22T01:07:52;11.65;;;8.07;;
79460;SDS011;68929;42.666;23.324;2023-07-22T01:10:18;15.90;;;7.18;;
79460;SDS011;68929;42.666;23.324;2023-07-22T01:12:44;15.77;;;6.50;;
79460;SDS011;68929;42.666;23.324;2023-07-22T01:15:10;8.80;;;5.85;;
79460;SDS011;68929;42.666;23.324;2023-07-22T01:17:36;10.98;;;6.90;;
79460;SDS011;68929;42.666;23.324;2023-07-22T01:20:02;15.55;;;6.95;;
79460;SDS011;68929;42.666;23.324;2023-07-22T01:22:28;9.05;;;6.25;;
79460;SDS011;68929;42.666;23.324;2023-07-22T01:24:54;10.85;;;6.50;;
79460;SDS011;68929;42.666;23.324;2023-07-22T01:27:21;11.07;;;6.90;;
79460;SDS011;68929;42.666;23.324;2023-07-22T01:29:46;9.50;;;6.13;;
79460;SDS011;68929;42.666;23.324;2023-07-22T01:32:16;10.10;;;6.10;;
79460;SDS011;68929;42.666;23.324;2023-07-22T01:34:42;7.63;;;6.07;;
79460;SDS011;68929;42.666;23.324;2023-07-22T01:37:07;8.45;;;5.60;;
79460;SDS011;68929;42.666;23.324;2023-07-22T01:39:34;12.10;;;7.32;;
79460;SDS011;68929;42.666;23.324;2023-07-22T01:42:00;10.40;;;6.70;;
79460;SDS011;68929;42.666;23.324;2023-07-22T01:44:26;10.63;;;6.80;;
79460;SDS011;68929;42.666;23.324;2023-07-22T01:46:51;9.23;;;6.80;;
79460;SDS011;68929;42.666;23.324;2023-07-22T01:49:16;13.15;;;7.13;;
79460;SDS011;68929;42.666;23.324;2023-07-22T01:51:42;7.05;;;5.32;;
79460;SDS011;68929;42.666;23.324;2023-07-22T01:54:07;10.30;;;6.03;;
79460;SDS011;68929;42.666;23.324;2023-07-22T01:56:34;9.82;;;6.20;;
79460;SDS011;68929;42.666;23.324;2023-07-22T01:59:00;15.75;;;6.78;;
79460;SDS011;68929;42.666;23.324;2023-07-22T02:01:25;10.73;;;6.60;;
79460;SDS011;68929;42.666;23.324;2023-07-22T02:03:51;9.15;;;5.72;;
79460;SDS011;68929;42.666;23.324;2023-07-22T02:06:16;13.02;;;6.15;;
79460;SDS011;68929;42.666;23.324;2023-07-22T02:08:42;6.55;;;5.60;;
79460;SDS011;68929;42.666;23.324;2023-07-22T02:11:07;11.50;;;6.60;;
79460;SDS011;68929;42.666;23.324;2023-07-22T02:13:36;12.27;;;7.80;;
79460;SDS011;68929;42.666;23.324;2023-07-22T02:16:01;12.40;;;7.10;;
79460;SDS011;68929;42.666;23.324;2023-07-22T02:18:27;10.68;;;6.05;;
79460;SDS011;68929;42.666;23.324;2023-07-22T02:20:53;14.32;;;7.25;;
79460;SDS011;68929;42.666;23.324;2023-07-22T02:23:19;8.80;;;7.38;;
79460;SDS011;68929;42.666;23.324;2023-07-22T02:25:49;12.90;;;8.00;;
79460;SDS011;68929;42.666;23.324;2023-07-22T02:28:15;9.70;;;6.78;;
79460;SDS011;68929;42.666;23.324;2023-07-22T02:30:40;14.35;;;7.22;;
79460;SDS011;68929;42.666;23.324;2023-07-22T02:33:06;9.85;;;6.30;;
79460;SDS011;68929;42.666;23.324;2023-07-22T02:35:31;12.50;;;7.18;;
79460;SDS011;68929;42.666;23.324;2023-07-22T02:37:58;11.10;;;6.28;;
79460;SDS011;68929;42.666;23.324;2023-07-22T02:40:28;7.53;;;5.25;;
79460;SDS011;68929;42.666;23.324;2023-07-22T02:42:54;10.63;;;6.68;;
79460;SDS011;68929;42.666;23.324;2023-07-22T02:45:19;9.07;;;6.55;;
79460;SDS011;68929;42.666;23.324;2023-07-22T02:47:44;8.80;;;5.88;;
79460;SDS011;68929;42.666;23.324;2023-07-22T02:50:10;10.05;;;6.30;;
79460;SDS011;68929;42.666;23.324;2023-07-22T02:52:35;16.30;;;7.03;;
79460;SDS011;68929;42.666;23.324;2023-07-22T02:55:05;8.77;;;6.45;;
79460;SDS011;68929;42.666;23.324;2023-07-22T02:57:32;12.90;;;6.13;;
79460;SDS011;68929;42.666;23.324;2023-07-22T02:59:59;11.70;;;5.93;;
79460;SDS011;68929;42.666;23.324;2023-07-22T03:02:24;8.32;;;6.70;;
79460;SDS011;68929;42.666;23.324;2023-07-22T03:04:50;8.95;;;5.82;;
79460;SDS011;68929;42.666;23.324;2023-07-22T03:07:15;6.65;;;5.70;;
79460;SDS011;68929;42.666;23.324;2023-07-22T03:09:40;6.32;;;5.72;;
79460;SDS011;68929;42.666;23.324;2023-07-22T03:12:06;8.63;;;5.72;;
79460;SDS011;68929;42.666;23.324;2023-07-22T03:14:31;22.58;;;6.18;;
79460;SDS011;68929;42.666;23.324;2023-07-22T03:17:01;9.65;;;7.50;;
79460;SDS011;68929;42.666;23.324;2023-07-22T03:19:28;10.15;;;6.55;;
79460;SDS011;68929;42.666;23.324;2023-07-22T03:21:54;10.25;;;6.90;;
79460;SDS011;68929;42.666;23.324;2023-07-22T03:24:19;9.02;;;6.90;;
79460;SDS011;68929;42.666;23.324;2023-07-22T03:26:45;9.98;;;6.60;;
79460;SDS011;68929;42.666;23.324;2023-07-22T03:29:10;8.77;;;6.45;;
79460;SDS011;68929;42.666;23.324;2023-07-22T03:31:35;9.77;;;7.03;;
79460;SDS011;68929;42.666;23.324;2023-07-22T03:34:01;12.15;;;6.82;;
79460;SDS011;68929;42.666;23.324;2023-07-22T03:36:26;15.35;;;8.70;;
79460;SDS011;68929;42.666;23.324;2023-07-22T03:38:51;10.48;;;6.68;;
79460;SDS011;68929;42.666;23.324;2023-07-22T03:41:23;14.88;;;8.15;;
79460;SDS011;68929;42.666;23.324;2023-07-22T03:43:54;13.18;;;7.72;;
79460;SDS011;68929;42.666;23.324;2023-07-22T03:46:20;7.95;;;6.38;;
79460;SDS011;68929;42.666;23.324;2023-07-22T03:48:45;11.93;;;7.93;;
79460;SDS011;68929;42.666;23.324;2023-07-22T03:51:10;9.52;;;6.88;;
79460;SDS011;68929;42.666;23.324;2023-07-22T03:53:36;10.40;;;6.78;;
79460;SDS011;68929;42.666;23.324;2023-07-22T03:56:08;11.70;;;7.25;;
79460;SDS011;68929;42.666;23.324;2023-07-22T03:58:33;11.75;;;7.25;;
79460;SDS011;68929;42.666;23.324;2023-07-22T04:00:59;14.73;;;7.70;;
79460;SDS011;68929;42.666;23.324;2023-07-22T04:03:25;7.90;;;6.55;;
79460;SDS011;68929;42.666;23.324;2023-07-22T04:05:54;12.43;;;8.30;;
79460;SDS011;68929;42.666;23.324;2023-07-22T04:08:20;16.55;;;8.25;;
79460;SDS011;68929;42.666;23.324;2023-07-22T04:10:55;12.38;;;6.82;;
79460;SDS011;68929;42.666;23.324;2023-07-22T04:13:22;9.35;;;6.47;;
79460;SDS011;68929;42.666;23.324;2023-07-22T04:15:48;8.02;;;5.88;;
79460;SDS011;68929;42.666;23.324;2023-07-22T04:18:17;13.23;;;7.32;;
79460;SDS011;68929;42.666;23.324;2023-07-22T04:20:44;18.35;;;8.20;;
79460;SDS011;68929;42.666;23.324;2023-07-22T04:23:10;13.05;;;7.40;;
79460;SDS011;68929;42.666;23.324;2023-07-22T04:25:42;19.17;;;9.43;;
79460;SDS011;68929;42.666;23.324;2023-07-22T04:28:08;11.32;;;7.28;;
79460;SDS011;68929;42.666;23.324;2023-07-22T04:30:37;13.20;;;8.85;;
79460;SDS011;68929;42.666;23.324;2023-07-22T04:33:05;11.68;;;7.35;;
79460;SDS011;68929;42.666;23.324;2023-07-22T04:35:33;10.25;;;7.80;;
79460;SDS011;68929;42.666;23.324;2023-07-22T04:37:59;13.98;;;7.68;;
79460;SDS011;68929;42.666;23.324;2023-07-22T04:40:24;17.30;;;7.97;;
79460;SDS011;68929;42.666;23.324;2023-07-22T04:42:50;13.15;;;6.85;;
79460;SDS011;68929;42.666;23.324;2023-07-22T04:45:16;9.40;;;7.60;;
79460;SDS011;68929;42.666;23.324;2023-07-22T04:47:43;15.65;;;8.30;;
79460;SDS011;68929;42.666;23.324;2023-07-22T04:50:11;13.63;;;8.77;;
79460;SDS011;68929;42.666;23.324;2023-07-22T04:52:39;15.13;;;8.00;;
79460;SDS011;68929;42.666;23.324;2023-07-22T04:55:06;14.05;;;8.10;;
79460;SDS011;68929;42.666;23.324;2023-07-22T04:57:40;13.63;;;9.13;;
79460;SDS011;68929;42.666;23.324;2023-07-22T05:00:07;13.70;;;8.00;;
79460;SDS011;68929;42.666;23.324;2023-07-22T05:02:45;12.25;;;7.93;;
79460;SDS011;68929;42.666;23.324;2023-07-22T05:05:13;13.00;;;8.60;;
79460;SDS011;68929;42.666;23.324;2023-07-22T05:07:40;10.75;;;7.57;;
79460;SDS011;68929;42.666;23.324;2023-07-22T05:10:06;13.88;;;8.30;;
79460;SDS011;68929;42.666;23.324;2023-07-22T05:12:37;18.83;;;9.60;;
79460;SDS011;68929;42.666;23.324;2023-07-22T05:15:05;16.52;;;8.52;;
79460;SDS011;68929;42.666;23.324;2023-07-22T05:17:31;16.48;;;9.82;;
79460;SDS011;68929;42.666;23.324;2023-07-22T05:19:57;14.50;;;9.30;;
79460;SDS011;68929;42.666;23.324;2023-07-22T05:22:23;16.98;;;9.43;;
79460;SDS011;68929;42.666;23.324;2023-07-22T05:24:48;10.70;;;7.85;;
79460;SDS011;68929;42.666;23.324;2023-07-22T05:27:14;9.48;;;6.60;;
79460;SDS011;68929;42.666;23.324;2023-07-22T05:29:40;11.45;;;7.65;;
79460;SDS011;68929;42.666;23.324;2023-07-22T05:32:05;14.75;;;8.77;;
79460;SDS011;68929;42.666;23.324;2023-07-22T05:34:31;14.98;;;10.15;;
79460;SDS011;68929;42.666;23.324;2023-07-22T05:36:56;10.63;;;8.07;;
79460;SDS011;68929;42.666;23.324;2023-07-22T05:39:22;16.33;;;9.38;;
79460;SDS011;68929;42.666;23.324;2023-07-22T05:41:47;15.95;;;10.55;;
79460;SDS011;68929;42.666;23.324;2023-07-22T05:44:12;15.32;;;10.65;;
79460;SDS011;68929;42.666;23.324;2023-07-22T05:46:38;10.63;;;7.00;;
79460;SDS011;68929;42.666;23.324;2023-07-22T05:49:03;16.38;;;8.82;;
79460;SDS011;68929;42.666;23.324;2023-07-22T05:51:29;12.93;;;8.90;;
79460;SDS011;68929;42.666;23.324;2023-07-22T05:53:54;9.63;;;7.47;;
79460;SDS011;68929;42.666;23.324;2023-07-22T05:56:19;17.83;;;9.88;;
79460;SDS011;68929;42.666;23.324;2023-07-22T05:58:45;9.57;;;7.43;;
79460;SDS011;68929;42.666;23.324;2023-07-22T06:01:10;12.25;;;8.57;;
79460;SDS011;68929;42.666;23.324;2023-07-22T06:03:37;13.90;;;9.63;;
79460;SDS011;68929;42.666;23.324;2023-07-22T06:06:13;12.93;;;9.00;;
79460;SDS011;68929;42.666;23.324;2023-07-22T06:08:38;17.17;;;10.48;;
79460;SDS011;68929;42.666;23.324;2023-07-22T06:11:03;16.42;;;10.20;;
79460;SDS011;68929;42.666;23.324;2023-07-22T06:13:29;17.88;;;10.30;;
79460;SDS011;68929;42.666;23.324;2023-07-22T06:15:54;20.23;;;11.02;;
79460;SDS011;68929;42.666;23.324;2023-07-22T06:18:20;20.23;;;11.80;;
79460;SDS011;68929;42.666;23.324;2023-07-22T06:20:45;16.05;;;10.48;;
79460;SDS011;68929;42.666;23.324;2023-07-22T06:23:11;19.13;;;9.93;;
79460;SDS011;68929;42.666;23.324;2023-07-22T06:25:36;17.83;;;11.80;;
79460;SDS011;68929;42.666;23.324;2023-07-22T06:28:01;11.32;;;8.10;;
79460;SDS011;68929;42.666;23.324;2023-07-22T06:30:27;15.00;;;11.50;;
79460;SDS011;68929;42.666;23.324;2023-07-22T06:32:52;18.60;;;11.40;;
79460;SDS011;68929;42.666;23.324;2023-07-22T06:35:18;19.52;;;12.30;;
79460;SDS011;68929;42.666;23.324;2023-07-22T06:37:43;17.75;;;11.88;;
79460;SDS011;68929;42.666;23.324;2023-07-22T06:40:09;17.75;;;11.85;;
79460;SDS011;68929;42.666;23.324;2023-07-22T06:42:35;19.38;;;12.50;;
79460;SDS011;68929;42.666;23.324;2023-07-22T06:45:00;19.33;;;12.02;;
79460;SDS011;68929;42.666;23.324;2023-07-22T06:47:26;13.35;;;10.55;;
79460;SDS011;68929;42.666;23.324;2023-07-22T06:49:52;16.45;;;10.50;;
79460;SDS011;68929;42.666;23.324;2023-07-22T06:52:17;14.48;;;11.50;;
79460;SDS011;68929;42.666;23.324;2023-07-22T06:54:43;17.13;;;11.52;;
79460;SDS011;68929;42.666;23.324;2023-07-22T06:57:08;14.88;;;10.95;;
79460;SDS011;68929;42.666;23.324;2023-07-22T06:59:34;21.98;;;10.75;;
79460;SDS011;68929;42.666;23.324;2023-07-22T07:01:59;18.17;;;9.65;;
79460;SDS011;68929;42.666;23.324;2023-07-22T07:04:25;14.52;;;9.70;;
79460;SDS011;68929;42.666;23.324;2023-07-22T07:06:51;18.13;;;10.52;;
79460;SDS011;68929;42.666;23.324;2023-07-22T07:09:16;14.85;;;10.27;;
79460;SDS011;68929;42.666;23.324;2023-07-22T07:11:42;16.92;;;8.50;;
79460;SDS011;68929;42.666;23.324;2023-07-22T07:14:07;14.68;;;9.13;;
79460;SDS011;68929;42.666;23.324;2023-07-22T07:16:33;17.50;;;10.13;;
79460;SDS011;68929;42.666;23.324;2023-07-22T07:18:59;13.48;;;9.43;;
79460;SDS011;68929;42.666;23.324;2023-07-22T07:21:25;14.18;;;9.00;;
79460;SDS011;68929;42.666;23.324;2023-07-22T07:23:51;15.25;;;9.70;;
79460;SDS011;68929;42.666;23.324;2023-07-22T07:26:17;15.90;;;9.63;;
79460;SDS011;68929;42.666;23.324;2023-07-22T07:28:43;14.30;;;10.02;;
79460;SDS011;68929;42.666;23.324;2023-07-22T07:31:11;12.38;;;9.63;;
79460;SDS011;68929;42.666;23.324;2023-07-22T07:33:37;17.55;;;8.85;;
79460;SDS011;68929;42.666;23.324;2023-07-22T07:36:02;13.02;;;9.18;;
79460;SDS011;68929;42.666;23.324;2023-07-22T07:38:28;13.38;;;8.70;;
79460;SDS011;68929;42.666;23.324;2023-07-22T07:40:58;12.20;;;9.27;;
79460;SDS011;68929;42.666;23.324;2023-07-22T07:43:25;14.68;;;9.18;;
79460;SDS011;68929;42.666;23.324;2023-07-22T07:45:51;12.38;;;9.05;;
79460;SDS011;68929;42.666;23.324;2023-07-22T07:48:46;16.15;;;9.18;;
79460;SDS011;68929;42.666;23.324;2023-07-22T07:51:15;16.20;;;9.50;;
79460;SDS011;68929;42.666;23.324;2023-07-22T07:53:42;19.83;;;9.70;;
79460;SDS011;68929;42.666;23.324;2023-07-22T07:56:09;15.10;;;9.32;;
79460;SDS011;68929;42.666;23.324;2023-07-22T07:58:35;14.20;;;9.43;;
79460;SDS011;68929;42.666;23.324;2023-07-22T08:01:01;17.40;;;10.05;;
79460;SDS011;68929;42.666;23.324;2023-07-22T08:03:26;18.60;;;9.30;;
79460;SDS011;68929;42.666;23.324;2023-07-22T08:05:52;14.68;;;9.25;;
79460;SDS011;68929;42.666;23.324;2023-07-22T08:08:17;15.88;;;10.40;;
79460;SDS011;68929;42.666;23.324;2023-07-22T08:10:42;15.25;;;9.98;;
79460;SDS011;68929;42.666;23.324;2023-07-22T08:13:09;14.40;;;9.82;;
79460;SDS011;68929;42.666;23.324;2023-07-22T08:15:35;14.18;;;9.68;;
79460;SDS011;68929;42.666;23.324;2023-07-22T08:18:00;18.63;;;9.50;;
79460;SDS011;68929;42.666;23.324;2023-07-22T08:20:25;16.60;;;9.73;;
79460;SDS011;68929;42.666;23.324;2023-07-22T08:22:51;16.08;;;9.85;;
79460;SDS011;68929;42.666;23.324;2023-07-22T08:25:17;20.80;;;10.27;;
79460;SDS011;68929;42.666;23.324;2023-07-22T08:27:42;15.13;;;9.80;;
79460;SDS011;68929;42.666;23.324;2023-07-22T08:30:08;18.58;;;10.20;;
79460;SDS011;68929;42.666;23.324;2023-07-22T08:32:33;16.60;;;10.00;;
79460;SDS011;68929;42.666;23.324;2023-07-22T08:34:59;14.20;;;9.80;;
79460;SDS011;68929;42.666;23.324;2023-07-22T08:37:24;22.40;;;9.80;;
79460;SDS011;68929;42.666;23.324;2023-07-22T08:39:49;18.02;;;9.90;;
79460;SDS011;68929;42.666;23.324;2023-07-22T08:42:15;18.80;;;10.35;;
79460;SDS011;68929;42.666;23.324;2023-07-22T08:44:44;20.27;;;11.05;;
79460;SDS011;68929;42.666;23.324;2023-07-22T08:47:14;13.73;;;9.60;;
79460;SDS011;68929;42.666;23.324;2023-07-22T08:49:45;18.42;;;10.18;;
79460;SDS011;68929;42.666;23.324;2023-07-22T08:52:20;21.85;;;10.32;;
79460;SDS011;68929;42.666;23.324;2023-07-22T08:54:47;14.10;;;9.52;;
79460;SDS011;68929;42.666;23.324;2023-07-22T08:57:14;17.27;;;10.00;;
79460;SDS011;68929;42.666;23.324;2023-07-22T08:59:41;20.13;;;10.38;;
79460;SDS011;68929;42.666;23.324;2023-07-22T09:02:08;21.58;;;10.55;;
79460;SDS011;68929;42.666;23.324;2023-07-22T09:04:37;12.93;;;9.93;;
79460;SDS011;68929;42.666;23.324;2023-07-22T09:07:02;16.45;;;9.57;;
79460;SDS011;68929;42.666;23.324;2023-07-22T09:09:28;18.38;;;10.30;;
79460;SDS011;68929;42.666;23.324;2023-07-22T09:11:54;19.58;;;10.15;;
79460;SDS011;68929;42.666;23.324;2023-07-22T09:14:20;27.98;;;10.15;;
79460;SDS011;68929;42.666;23.324;2023-07-22T09:16:47;16.42;;;9.80;;
79460;SDS011;68929;42.666;23.324;2023-07-22T09:19:12;17.33;;;10.00;;
79460;SDS011;68929;42.666;23.324;2023-07-22T09:21:38;17.40;;;9.80;;
79460;SDS011;68929;42.666;23.324;2023-07-22T09:26:53;14.65;;;9.73;;
79460;SDS011;68929;42.666;23.324;2023-07-22T09:29:18;18.05;;;10.15;;
79460;SDS011;68929;42.666;23.324;2023-07-22T09:31:58;18.93;;;10.13;;
79460;SDS011;68929;42.666;23.324;2023-07-22T09:34:23;19.20;;;10.00;;
79460;SDS011;68929;42.666;23.324;2023-07-22T09:36:51;16.92;;;9.68;;
79460;SDS011;68929;42.666;23.324;2023-07-22T09:39:17;17.33;;;8.95;;
79460;SDS011;68929;42.666;23.324;2023-07-22T09:41:43;19.30;;;9.82;;
79460;SDS011;68929;42.666;23.324;2023-07-22T09:44:09;17.73;;;9.30;;
79460;SDS011;68929;42.666;23.324;2023-07-22T09:46:36;18.55;;;10.15;;
79460;SDS011;68929;42.666;23.324;2023-07-22T09:49:05;15.43;;;9.73;;
79460;SDS011;68929;42.666;23.324;2023-07-22T09:51:33;21.95;;;8.95;;
79460;SDS011;68929;42.666;23.324;2023-07-22T09:54:00;15.27;;;9.30;;
79460;SDS011;68929;42.666;23.324;2023-07-22T09:56:27;15.40;;;9.63;;
79460;SDS011;68929;42.666;23.324;2023-07-22T09:58:53;14.43;;;8.77;;
79460;SDS011;68929;42.666;23.324;2023-07-22T10:01:23;16.45;;;9.43;;
79460;SDS011;68929;42.666;23.324;2023-07-22T10:03:54;18.00;;;8.50;;
79460;SDS011;68929;42.666;23.324;2023-07-22T10:06:24;20.13;;;9.27;;
79460;SDS011;68929;42.666;23.324;2023-07-22T10:08:52;19.90;;;8.80;;
79460;SDS011;68929;42.666;23.324;2023-07-22T10:11:19;23.17;;;9.32;;
79460;SDS011;68929;42.666;23.324;2023-07-22T10:13:47;20.90;;;8.80;;
79460;SDS011;68929;42.666;23.324;2023-07-22T10:16:13;16.58;;;8.23;;
79460;SDS011;68929;42.666;23.324;2023-07-22T10:18:40;21.23;;;8.93;;
79460;SDS011;68929;42.666;23.324;2023-07-22T10:21:08;23.42;;;9.18;;
79460;SDS011;68929;42.666;23.324;2023-07-22T10:23:34;15.82;;;8.55;;
79460;SDS011;68929;42.666;23.324;2023-07-22T10:26:03;25.63;;;9.27;;
79460;SDS011;68929;42.666;23.324;2023-07-22T10:28:30;17.67;;;8.80;;
79460;SDS011;68929;42.666;23.324;2023-07-22T10:30:56;20.73;;;8.55;;
79460;SDS011;68929;42.666;23.324;2023-07-22T10:33:22;19.90;;;8.77;;
79460;SDS011;68929;42.666;23.324;2023-07-22T10:36:01;26.27;;;8.30;;
79460;SDS011;68929;42.666;23.324;2023-07-22T10:38:32;21.80;;;8.18;;
79460;SDS011;68929;42.666;23.324;2023-07-22T10:40:57;29.05;;;8.70;;
79460;SDS011;68929;42.666;23.324;2023-07-22T10:43:32;25.42;;;7.63;;
79460;SDS011;68929;42.666;23.324;2023-07-22T10:46:04;23.48;;;7.35;;
79460;SDS011;68929;42.666;23.324;2023-07-22T10:48:36;31.65;;;7.60;;
79460;SDS011;68929;42.666;23.324;2023-07-22T10:51:10;21.27;;;7.47;;
79460;SDS011;68929;42.666;23.324;2023-07-22T10:53:40;26.02;;;8.15;;
79460;SDS011;68929;42.666;23.324;2023-07-22T11:06:28;25.67;;;7.18;;
79460;SDS011;68929;42.666;23.324;2023-07-22T11:08:55;26.45;;;7.47;;
79460;SDS011;68929;42.666;23.324;2023-07-22T11:11:20;31.48;;;7.97;;
79460;SDS011;68929;42.666;23.324;2023-07-22T11:13:46;22.98;;;7.00;;
79460;SDS011;68929;42.666;23.324;2023-07-22T11:16:11;26.88;;;7.38;;
79460;SDS011;68929;42.666;23.324;2023-07-22T11:18:38;20.38;;;6.88;;
79460;SDS011;68929;42.666;23.324;2023-07-22T11:21:08;22.58;;;6.82;;
79460;SDS011;68929;42.666;23.324;2023-07-22T11:23:35;24.30;;;6.55;;
79460;SDS011;68929;42.666;23.324;2023-07-22T11:26:00;20.77;;;6.90;;
79460;SDS011;68929;42.666;23.324;2023-07-22T11:28:27;20.98;;;7.07;;
79460;SDS011;68929;42.666;23.324;2023-07-22T11:30:52;23.77;;;7.60;;
79460;SDS011;68929;42.666;23.324;2023-07-22T11:33:18;27.40;;;7.30;;
79460;SDS011;68929;42.666;23.324;2023-07-22T11:35:44;25.35;;;6.93;;
79460;SDS011;68929;42.666;23.324;2023-07-22T11:38:11;25.48;;;7.38;;
79460;SDS011;68929;42.666;23.324;2023-07-22T11:40:39;26.25;;;6.97;;
79460;SDS011;68929;42.666;23.324;2023-07-22T11:43:05;26.33;;;7.47;;
79460;SDS011;68929;42.666;23.324;2023-07-22T11:45:32;30.85;;;7.68;;
79460;SDS011;68929;42.666;23.324;2023-07-22T11:47:58;24.23;;;7.03;;
79460;SDS011;68929;42.666;23.324;2023-07-22T11:50:33;26.33;;;7.30;;
79460;SDS011;68929;42.666;23.324;2023-07-22T11:52:58;25.42;;;7.25;;
79460;SDS011;68929;42.666;23.324;2023-07-22T11:55:24;25.58;;;7.90;;
79460;SDS011;68929;42.666;23.324;2023-07-22T11:57:55;24.42;;;7.03;;
79460;SDS011;68929;42.666;23.324;2023-07-22T12:00:21;24.40;;;7.60;;
79460;SDS011;68929;42.666;23.324;2023-07-22T12:02:47;28.42;;;6.90;;
79460;SDS011;68929;42.666;23.324;2023-07-22T12:05:18;18.37;;;7.53;;
79460;SDS011;68929;42.666;23.324;2023-07-22T12:07:45;24.05;;;7.05;;
79460;SDS011;68929;42.666;23.324;2023-07-22T12:10:11;22.55;;;8.40;;
79460;SDS011;68929;42.666;23.324;2023-07-22T12:12:37;27.25;;;7.10;;
79460;SDS011;68929;42.666;23.324;2023-07-22T12:20:10;29.13;;;7.20;;
79460;SDS011;68929;42.666;23.324;2023-07-22T12:22:35;27.42;;;8.05;;
79460;SDS011;68929;42.666;23.324;2023-07-22T12:25:01;27.30;;;7.53;;
79460;SDS011;68929;42.666;23.324;2023-07-22T12:27:26;20.73;;;6.93;;
79460;SDS011;68929;42.666;23.324;2023-07-22T12:29:51;26.00;;;6.93;;
79460;SDS011;68929;42.666;23.324;2023-07-22T12:32:17;24.40;;;7.07;;
79460;SDS011;68929;42.666;23.324;2023-07-22T12:34:42;23.33;;;7.53;;
79460;SDS011;68929;42.666;23.324;2023-07-22T12:37:07;21.30;;;7.65;;
79460;SDS011;68929;42.666;23.324;2023-07-22T12:39:35;21.00;;;6.83;;
79460;SDS011;68929;42.666;23.324;2023-07-22T12:42:05;32.20;;;7.90;;
79460;SDS011;68929;42.666;23.324;2023-07-22T12:44:30;24.13;;;7.00;;
79460;SDS011;68929;42.666;23.324;2023-07-22T12:46:55;31.70;;;8.25;;
79460;SDS011;68929;42.666;23.324;2023-07-22T12:49:21;25.15;;;7.38;;
79460;SDS011;68929;42.666;23.324;2023-07-22T12:51:46;25.47;;;6.93;;
79460;SDS011;68929;42.666;23.324;2023-07-22T12:54:12;22.20;;;6.30;;
79460;SDS011;68929;42.666;23.324;2023-07-22T12:56:37;25.75;;;7.38;;
79460;SDS011;68929;42.666;23.324;2023-07-22T12:59:02;21.98;;;6.75;;
79460;SDS011;68929;42.666;23.324;2023-07-22T13:01:28;22.33;;;7.07;;
79460;SDS011;68929;42.666;23.324;2023-07-22T13:03:53;21.17;;;6.80;;
79460;SDS011;68929;42.666;23.324;2023-07-22T13:06:18;27.23;;;6.75;;
79460;SDS011;68929;42.666;23.324;2023-07-22T13:08:44;21.10;;;7.18;;
79460;SDS011;68929;42.666;23.324;2023-07-22T13:11:09;23.77;;;7.57;;
79460;SDS011;68929;42.666;23.324;2023-07-22T13:13:34;24.90;;;6.97;;
79460;SDS011;68929;42.666;23.324;2023-07-22T13:16:00;26.58;;;7.45;;
79460;SDS011;68929;42.666;23.324;2023-07-22T13:18:25;32.93;;;6.90;;
79460;SDS011;68929;42.666;23.324;2023-07-22T13:20:54;25.97;;;6.97;;
79460;SDS011;68929;42.666;23.324;2023-07-22T13:23:26;27.70;;;6.95;;
79460;SDS011;68929;42.666;23.324;2023-07-22T13:25:51;22.90;;;6.57;;
79460;SDS011;68929;42.666;23.324;2023-07-22T13:28:16;26.77;;;7.40;;
79460;SDS011;68929;42.666;23.324;2023-07-22T13:30:41;27.93;;;6.73;;
79460;SDS011;68929;42.666;23.324;2023-07-22T13:33:07;24.87;;;7.07;;
79460;SDS011;68929;42.666;23.324;2023-07-22T13:35:32;25.73;;;6.70;;
79460;SDS011;68929;42.666;23.324;2023-07-22T13:37:58;29.55;;;7.25;;
79460;SDS011;68929;42.666;23.324;2023-07-22T13:40:23;28.23;;;7.57;;
79460;SDS011;68929;42.666;23.324;2023-07-22T13:42:48;24.67;;;7.37;;
79460;SDS011;68929;42.666;23.324;2023-07-22T13:45:14;21.23;;;6.93;;
79460;SDS011;68929;42.666;23.324;2023-07-22T13:47:40;23.85;;;6.93;;
79460;SDS011;68929;42.666;23.324;2023-07-22T13:50:05;24.85;;;6.90;;
79460;SDS011;68929;42.666;23.324;2023-07-22T13:52:31;34.47;;;7.80;;
79460;SDS011;68929;42.666;23.324;2023-07-22T13:54:56;27.40;;;7.33;;
79460;SDS011;68929;42.666;23.324;2023-07-22T13:57:21;31.77;;;7.30;;
79460;SDS011;68929;42.666;23.324;2023-07-22T13:59:47;29.75;;;7.30;;
79460;SDS011;68929;42.666;23.324;2023-07-22T14:02:12;25.23;;;6.68;;
79460;SDS011;68929;42.666;23.324;2023-07-22T14:04:37;29.30;;;7.00;;
79460;SDS011;68929;42.666;23.324;2023-07-22T14:07:03;25.42;;;6.50;;
79460;SDS011;68929;42.666;23.324;2023-07-22T14:09:28;27.70;;;7.03;;
79460;SDS011;68929;42.666;23.324;2023-07-22T14:11:54;36.57;;;8.23;;
79460;SDS011;68929;42.666;23.324;2023-07-22T14:14:24;28.92;;;6.47;;
79460;SDS011;68929;42.666;23.324;2023-07-22T14:16:54;28.13;;;7.47;;
79460;SDS011;68929;42.666;23.324;2023-07-22T14:19:20;21.50;;;7.43;;
79460;SDS011;68929;42.666;23.324;2023-07-22T14:21:46;32.35;;;7.05;;
79460;SDS011;68929;42.666;23.324;2023-07-22T14:24:11;27.30;;;6.65;;
79460;SDS011;68929;42.666;23.324;2023-07-22T14:26:37;24.27;;;7.28;;
79460;SDS011;68929;42.666;23.324;2023-07-22T14:29:02;29.10;;;7.40;;
79460;SDS011;68929;42.666;23.324;2023-07-22T14:31:27;33.27;;;8.00;;
79460;SDS011;68929;42.666;23.324;2023-07-22T14:33:53;25.40;;;7.25;;
79460;SDS011;68929;42.666;23.324;2023-07-22T14:36:18;35.77;;;7.10;;